Time;durP1;ratioP1;P1;durP2;ratioP2;P2;SDS_P1;SDS_P2;PMS_P1;PMS_P2;Temp;Humidity;BMP_temperature;BMP_pressure;BME280_temperature;BME280_humidity;BME280_pressure;Samples;Min_cycle;Max_cycle;Signal;HPM_P1;HPM_P2
2022/10/16 00:01:51;;;;;;;;;;;19.80;72.20;;;;;;4478163;32;19962;-71
2022/10/16 00:04:17;;;;;;;;;;;19.80;72.20;;;;;;4477774;32;19962;-71
2022/10/16 00:06:43;;;;;;;;;;;19.80;72.10;;;;;;4477995;32;19982;-72
2022/10/16 00:09:08;;;;;;;;;;;19.80;72.20;;;;;;4478123;32;20495;-71
2022/10/16 00:11:38;;;;;;;;;;;19.80;72.10;;;;;;4477406;32;20514;-71
2022/10/16 00:14:05;;;;;;;;;;;19.70;72.10;;;;;;4477677;32;19982;-71
2022/10/16 00:16:31;;;;;;;;;;;19.70;72.10;;;;;;4477803;32;20048;-71
2022/10/16 00:18:57;;;;;;;;;;;19.70;72.10;;;;;;4477922;32;20366;-71
2022/10/16 00:21:25;;;;;;;;;;;19.70;72.20;;;;;;4477896;32;20029;-71
2022/10/16 00:23:52;;;;;;;;;;;19.70;72.10;;;;;;4477505;32;20082;-71
2022/10/16 00:26:19;;;;;;;;;;;19.70;72.20;;;;;;4477231;32;19989;-71
2022/10/16 00:28:46;;;;;;;;;;;19.70;72.10;;;;;;4477243;32;20095;-71
2022/10/16 00:31:12;;;;;;;;;;;19.70;72.20;;;;;;4477424;32;20013;-71
2022/10/16 00:33:38;;;;;;;;;;;19.70;72.20;;;;;;4477133;32;20096;-71
2022/10/16 00:36:11;;;;;;;;;;;19.70;72.10;;;;;;4477748;32;19977;-71
2022/10/16 00:38:40;;;;;;;;;;;19.70;72.10;;;;;;4477653;32;19989;-71
2022/10/16 00:41:07;;;;;;;;;;;19.70;72.20;;;;;;4477095;32;20096;-70
2022/10/16 00:43:43;;;;;;;;;;;19.70;72.10;;;;;;4477309;32;20024;-71
2022/10/16 00:46:14;;;;;;;;;;;19.70;72.10;;;;;;4477565;32;19978;-71
2022/10/16 00:48:40;;;;;;;;;;;19.70;72.10;;;;;;4477363;32;20087;-71
2022/10/16 00:51:07;;;;;;;;;;;19.70;72.10;;;;;;4476861;32;20358;-71
2022/10/16 00:53:33;;;;;;;;;;;19.60;72.00;;;;;;4476994;32;20443;-71
2022/10/16 00:55:59;;;;;;;;;;;19.60;72.00;;;;;;4477097;32;20529;-71
2022/10/16 00:58:24;;;;;;;;;;;19.60;72.00;;;;;;4477442;32;19976;-71
2022/10/16 01:00:50;;;;;;;;;;;19.60;72.00;;;;;;4476788;32;20814;-71
2022/10/16 01:03:42;;;;;;;;;;;19.60;72.00;;;;;;4462195;32;19970;-69
2022/10/16 01:06:16;;;;;;;;;;;19.60;72.00;;;;;;4475622;32;19973;-69
2022/10/16 01:08:53;;;;;;;;;;;19.60;72.00;;;;;;4477203;32;20103;-69
2022/10/16 01:11:38;;;;;;;;;;;19.60;72.00;;;;;;4477338;32;19966;-74
2022/10/16 01:14:39;;;;;;;;;;;19.60;72.00;;;;;;4477380;32;20021;-69
2022/10/16 01:17:10;;;;;;;;;;;19.60;72.10;;;;;;4443993;32;20315;-69
2022/10/16 01:19:44;;;;;;;;;;;19.60;72.00;;;;;;4471121;32;20051;-69
2022/10/16 01:22:10;;;;;;;;;;;19.60;72.00;;;;;;4476925;32;20414;-68
2022/10/16 01:24:40;;;;;;;;;;;19.60;72.00;;;;;;4476607;32;19970;-68
2022/10/16 01:27:16;;;;;;;;;;;19.60;72.00;;;;;;4477212;32;19977;-68
2022/10/16 01:29:41;;;;;;;;;;;19.60;71.90;;;;;;4476938;32;19981;-68
2022/10/16 01:32:26;;;;;;;;;;;19.60;71.90;;;;;;4476766;32;19970;-69
2022/10/16 01:35:15;;;;;;;;;;;19.60;71.90;;;;;;4476863;32;20055;-68
2022/10/16 01:37:45;;;;;;;;;;;19.60;71.90;;;;;;4473165;32;20033;-68
2022/10/16 01:40:13;;;;;;;;;;;19.60;72.00;;;;;;4478000;32;19974;-68
2022/10/16 01:42:41;;;;;;;;;;;19.50;71.90;;;;;;4477602;32;19978;-69
2022/10/16 01:45:08;;;;;;;;;;;19.50;71.80;;;;;;4479964;32;20063;-69
2022/10/16 01:47:35;;;;;;;;;;;19.60;71.80;;;;;;4477055;32;19978;-69
2022/10/16 01:50:02;;;;;;;;;;;19.50;71.80;;;;;;4476963;32;20013;-69
2022/10/16 01:52:29;;;;;;;;;;;19.50;71.80;;;;;;4476622;32;20055;-69
2022/10/16 01:54:55;;;;;;;;;;;19.50;71.80;;;;;;4476926;32;19984;-69
2022/10/16 01:57:22;;;;;;;;;;;19.50;71.80;;;;;;4476461;32;20006;-68
2022/10/16 01:59:50;;;;;;;;;;;19.50;71.80;;;;;;4476659;32;20099;-68
2022/10/16 02:02:17;;;;;;;;;;;19.50;72.60;;;;;;4476685;32;20296;-69
2022/10/16 02:04:45;;;;;;;;;;;19.50;71.80;;;;;;4477176;32;20006;-68
2022/10/16 02:07:11;;;;;;;;;;;19.50;71.70;;;;;;4476743;32;20036;-69
2022/10/16 02:09:37;;;;;;;;;;;19.50;71.70;;;;;;4477053;32;19982;-69
2022/10/16 02:12:08;;;;;;;;;;;19.50;71.70;;;;;;4476671;32;20529;-69
2022/10/16 02:14:35;;;;;;;;;;;19.50;71.70;;;;;;4476867;32;20047;-69
2022/10/16 02:17:01;;;;;;;;;;;19.50;71.70;;;;;;4479521;32;20098;-69
2022/10/16 02:19:27;;;;;;;;;;;19.50;71.70;;;;;;4479170;32;20100;-68
2022/10/16 02:22:02;;;;;;;;;;;19.50;71.70;;;;;;4479438;32;20069;-68
2022/10/16 02:24:32;;;;;;;;;;;19.50;71.70;;;;;;4479568;32;20288;-69
2022/10/16 02:27:03;;;;;;;;;;;19.40;71.60;;;;;;4479329;32;19978;-69
2022/10/16 02:29:30;;;;;;;;;;;19.40;71.60;;;;;;4479453;32;19969;-69
2022/10/16 02:32:01;;;;;;;;;;;19.50;71.70;;;;;;4479158;32;19988;-68
2022/10/16 02:34:28;;;;;;;;;;;19.40;71.60;;;;;;4479024;32;19974;-68
2022/10/16 02:36:56;;;;;;;;;;;19.40;71.60;;;;;;4479187;32;20523;-68
2022/10/16 02:39:21;;;;;;;;;;;19.40;71.60;;;;;;4479349;32;19977;-69
2022/10/16 02:41:47;;;;;;;;;;;19.40;71.60;;;;;;4479126;32;20370;-68
2022/10/16 02:44:15;;;;;;;;;;;19.40;71.50;;;;;;4478804;32;19992;-68
2022/10/16 02:46:41;;;;;;;;;;;19.40;71.60;;;;;;4478839;32;19970;-68
2022/10/16 02:49:07;;;;;;;;;;;19.40;71.60;;;;;;4479006;32;19966;-69
2022/10/16 02:51:32;;;;;;;;;;;19.40;71.60;;;;;;4478915;32;20001;-69
2022/10/16 02:53:58;;;;;;;;;;;19.40;71.50;;;;;;4478968;32;19962;-70
2022/10/16 02:56:24;;;;;;;;;;;19.40;71.50;;;;;;4478851;32;20488;-69
2022/10/16 02:58:49;;;;;;;;;;;19.40;71.60;;;;;;4479000;32;20025;-69
2022/10/16 03:01:16;;;;;;;;;;;19.40;71.50;;;;;;4478904;32;19977;-68
2022/10/16 03:03:42;;;;;;;;;;;19.40;71.50;;;;;;4464808;32;19974;-69
2022/10/16 03:06:08;;;;;;;;;;;19.40;71.60;;;;;;4478769;32;19980;-68
2022/10/16 03:08:33;;;;;;;;;;;19.40;71.50;;;;;;4478675;32;20387;-69
2022/10/16 03:10:59;;;;;;;;;;;19.40;71.50;;;;;;4478639;32;20092;-69
2022/10/16 03:13:25;;;;;;;;;;;19.40;71.50;;;;;;4478671;32;20029;-69
2022/10/16 03:15:50;;;;;;;;;;;19.40;71.60;;;;;;4478667;32;20055;-69
2022/10/16 03:18:16;;;;;;;;;;;19.40;71.60;;;;;;4478872;32;19977;-69
2022/10/16 03:20:42;;;;;;;;;;;19.30;71.60;;;;;;4478314;32;20307;-68
2022/10/16 03:23:08;;;;;;;;;;;19.40;71.60;;;;;;4478313;32;20311;-69
2022/10/16 03:25:34;;;;;;;;;;;19.40;71.60;;;;;;4478500;32;19985;-69
2022/10/16 03:28:00;;;;;;;;;;;19.30;71.50;;;;;;4477264;32;19970;-69
2022/10/16 03:30:26;;;;;;;;;;;19.40;71.60;;;;;;4478361;32;20066;-69
2022/10/16 03:32:55;;;;;;;;;;;19.30;71.50;;;;;;4478385;32;20135;-69
2022/10/16 03:35:21;;;;;;;;;;;19.30;71.50;;;;;;4478301;32;19977;-68
2022/10/16 03:37:47;;;;;;;;;;;19.30;71.50;;;;;;4478542;32;20303;-68
2022/10/16 03:40:12;;;;;;;;;;;19.30;71.50;;;;;;4478024;32;20072;-69
2022/10/16 03:42:38;;;;;;;;;;;19.30;71.50;;;;;;4478212;32;20409;-68
2022/10/16 03:45:04;;;;;;;;;;;19.30;71.50;;;;;;4451246;32;19989;-68
2022/10/16 03:47:32;;;;;;;;;;;19.30;71.40;;;;;;4478257;32;19986;-69
2022/10/16 03:49:58;;;;;;;;;;;19.30;71.50;;;;;;4478137;32;19973;-71
2022/10/16 03:52:24;;;;;;;;;;;19.30;71.40;;;;;;4478235;32;19974;-74
2022/10/16 03:54:49;;;;;;;;;;;19.30;71.40;;;;;;4478050;32;19981;-69
2022/10/16 03:57:15;;;;;;;;;;;19.30;71.40;;;;;;4463609;32;20092;-68
2022/10/16 03:59:41;;;;;;;;;;;19.30;71.40;;;;;;4477955;32;20026;-69
2022/10/16 04:02:07;;;;;;;;;;;19.30;71.40;;;;;;4477950;32;19965;-68
2022/10/16 04:04:33;;;;;;;;;;;19.30;71.40;;;;;;4477859;32;20206;-69
2022/10/16 04:06:59;;;;;;;;;;;19.30;71.40;;;;;;4477887;32;20021;-69
2022/10/16 04:09:25;;;;;;;;;;;19.30;71.40;;;;;;4477723;32;20108;-69
2022/10/16 04:11:51;;;;;;;;;;;19.30;71.30;;;;;;4477746;32;20391;-69
2022/10/16 04:14:17;;;;;;;;;;;19.20;71.30;;;;;;4477534;32;19958;-68
2022/10/16 04:16:43;;;;;;;;;;;19.30;71.30;;;;;;4463404;32;20020;-68
2022/10/16 04:19:09;;;;;;;;;;;19.30;71.30;;;;;;4477441;32;19973;-69
2022/10/16 04:21:35;;;;;;;;;;;19.20;71.30;;;;;;4477701;32;20415;-68
2022/10/16 04:24:00;;;;;;;;;;;19.30;71.30;;;;;;4477784;32;20395;-69
2022/10/16 04:26:26;;;;;;;;;;;19.30;71.20;;;;;;4477449;32;19974;-69
2022/10/16 04:28:52;;;;;;;;;;;19.30;71.20;;;;;;4477314;32;19970;-68
2022/10/16 04:31:18;;;;;;;;;;;19.20;71.10;;;;;;4477159;32;19981;-69
2022/10/16 04:33:44;;;;;;;;;;;19.30;71.10;;;;;;4477472;32;19984;-69
2022/10/16 04:36:10;;;;;;;;;;;19.20;71.00;;;;;;4477201;32;20501;-69
2022/10/16 04:38:37;;;;;;;;;;;19.20;71.00;;;;;;4477569;32;20403;-69
2022/10/16 04:41:03;;;;;;;;;;;19.20;71.00;;;;;;4463237;32;20410;-69
2022/10/16 04:43:29;;;;;;;;;;;19.20;71.00;;;;;;4477313;32;19978;-69
2022/10/16 04:45:56;;;;;;;;;;;19.20;71.00;;;;;;4477443;32;20445;-68
2022/10/16 04:48:22;;;;;;;;;;;19.20;71.00;;;;;;4477536;32;20431;-68
2022/10/16 04:50:47;;;;;;;;;;;19.20;71.00;;;;;;4476163;32;19974;-69
2022/10/16 04:53:13;;;;;;;;;;;19.20;70.90;;;;;;4477251;32;20024;-68
2022/10/16 04:55:39;;;;;;;;;;;19.20;70.90;;;;;;4477200;32;20023;-70
2022/10/16 04:58:05;;;;;;;;;;;19.20;70.90;;;;;;4477440;32;20395;-68
2022/10/16 05:00:31;;;;;;;;;;;19.20;70.90;;;;;;4477445;32;20441;-69
2022/10/16 05:02:59;;;;;;;;;;;19.20;70.90;;;;;;4477142;32;19985;-70
2022/10/16 05:05:25;;;;;;;;;;;19.20;70.90;;;;;;4477143;32;20500;-67
2022/10/16 05:07:51;;;;;;;;;;;19.20;70.90;;;;;;4476743;32;19962;-69
2022/10/16 05:10:17;;;;;;;;;;;19.20;70.90;;;;;;4462768;32;20319;-69
2022/10/16 05:12:42;;;;;;;;;;;19.20;70.90;;;;;;4476959;32;19966;-69
2022/10/16 05:15:08;;;;;;;;;;;19.20;70.80;;;;;;4477142;32;19977;-68
2022/10/16 05:17:34;;;;;;;;;;;19.10;70.80;;;;;;4476960;32;20002;-69
2022/10/16 05:20:00;;;;;;;;;;;19.10;70.80;;;;;;4477207;32;20322;-68
2022/10/16 05:22:25;;;;;;;;;;;19.10;70.80;;;;;;4476909;32;20032;-72
2022/10/16 05:24:51;;;;;;;;;;;19.10;70.70;;;;;;4477159;32;20010;-69
2022/10/16 05:27:19;;;;;;;;;;;19.10;70.70;;;;;;4476847;32;20052;-69
2022/10/16 05:29:46;;;;;;;;;;;19.10;70.70;;;;;;4476935;32;19978;-67
2022/10/16 05:32:16;;;;;;;;;;;19.10;70.80;;;;;;4477022;32;19996;-69
2022/10/16 05:34:43;;;;;;;;;;;19.10;70.70;;;;;;4476574;32;20036;-68
2022/10/16 05:37:09;;;;;;;;;;;19.10;70.70;;;;;;4476769;32;20540;-68
2022/10/16 05:39:36;;;;;;;;;;;19.10;70.70;;;;;;4477058;32;20016;-68
2022/10/16 05:42:02;;;;;;;;;;;19.10;70.70;;;;;;4476801;32;19970;-71
2022/10/16 05:44:28;;;;;;;;;;;19.10;70.70;;;;;;4476725;32;19984;-69
2022/10/16 05:46:54;;;;;;;;;;;19.10;70.70;;;;;;4476861;32;20061;-70
2022/10/16 05:49:19;;;;;;;;;;;19.10;70.70;;;;;;4476480;32;20087;-70
2022/10/16 05:51:45;;;;;;;;;;;19.10;70.70;;;;;;4479759;32;19977;-70
2022/10/16 05:54:11;;;;;;;;;;;19.10;70.70;;;;;;4479741;32;20051;-70
2022/10/16 05:56:37;;;;;;;;;;;19.10;70.70;;;;;;4479651;32;19977;-72
2022/10/16 05:59:03;;;;;;;;;;;19.10;70.70;;;;;;4479410;32;19974;-78
2022/10/16 06:01:29;;;;;;;;;;;19.10;70.70;;;;;;4480038;32;19989;-70
2022/10/16 06:03:54;;;;;;;;;;;19.10;70.80;;;;;;4479604;32;20341;-70
2022/10/16 06:06:21;;;;;;;;;;;19.00;70.80;;;;;;4479286;32;20115;-70
2022/10/16 06:08:48;;;;;;;;;;;19.10;70.70;;;;;;4479801;32;19978;-70
2022/10/16 06:11:15;;;;;;;;;;;19.10;70.70;;;;;;4479578;32;20131;-71
2022/10/16 06:13:42;;;;;;;;;;;19.10;70.80;;;;;;4479699;32;19985;-70
2022/10/16 06:16:08;;;;;;;;;;;19.10;70.70;;;;;;4479158;32;20005;-70
2022/10/16 06:18:34;;;;;;;;;;;19.10;70.70;;;;;;4479412;32;20022;-71
2022/10/16 06:21:06;;;;;;;;;;;19.00;70.70;;;;;;4479369;32;20032;-70
2022/10/16 06:23:32;;;;;;;;;;;19.00;70.60;;;;;;4465347;32;20075;-70
2022/10/16 06:26:08;;;;;;;;;;;19.00;70.70;;;;;;4465105;32;19973;-72
2022/10/16 06:28:34;;;;;;;;;;;19.00;70.70;;;;;;4479244;32;20048;-70
2022/10/16 06:31:00;;;;;;;;;;;19.00;70.70;;;;;;4479280;32;20392;-70
2022/10/16 06:33:26;;;;;;;;;;;19.00;70.70;;;;;;4479243;32;20103;-75
2022/10/16 06:35:52;;;;;;;;;;;19.00;70.60;;;;;;4479507;32;19970;-70
2022/10/16 06:38:18;;;;;;;;;;;19.00;70.60;;;;;;4479248;32;19977;-71
2022/10/16 06:40:43;;;;;;;;;;;19.00;70.60;;;;;;4478935;32;20021;-70
2022/10/16 06:43:09;;;;;;;;;;;19.00;70.60;;;;;;4479390;32;19962;-70
2022/10/16 06:45:35;;;;;;;;;;;19.00;70.60;;;;;;4479345;32;20343;-70
2022/10/16 06:48:00;;;;;;;;;;;19.00;70.60;;;;;;4479135;32;20005;-70
2022/10/16 06:50:26;;;;;;;;;;;19.00;70.60;;;;;;4479050;32;20368;-70
2022/10/16 06:52:52;;;;;;;;;;;19.00;70.60;;;;;;4478702;32;19996;-70
2022/10/16 06:55:17;;;;;;;;;;;19.00;70.60;;;;;;4478942;32;19980;-72
2022/10/16 06:57:43;;;;;;;;;;;19.00;70.50;;;;;;4478829;32;20001;-70
2022/10/16 07:00:09;;;;;;;;;;;19.00;70.60;;;;;;4478892;32;20016;-70
2022/10/16 07:02:35;;;;;;;;;;;19.00;70.60;;;;;;4477999;32;20331;-70
2022/10/16 07:05:01;;;;;;;;;;;19.00;70.50;;;;;;4478801;32;20316;-71
2022/10/16 07:07:26;;;;;;;;;;;19.00;70.60;;;;;;4478796;32;19981;-70
2022/10/16 07:09:52;;;;;;;;;;;19.00;70.50;;;;;;4478505;32;19993;-70
2022/10/16 07:12:18;;;;;;;;;;;19.00;70.60;;;;;;4478386;32;20569;-71
2022/10/16 07:14:44;;;;;;;;;;;19.00;70.50;;;;;;4478569;32;20009;-69
2022/10/16 07:17:09;;;;;;;;;;;19.00;70.50;;;;;;4478785;32;20425;-69
2022/10/16 07:19:35;;;;;;;;;;;19.00;70.40;;;;;;4479242;32;20025;-69
2022/10/16 07:22:01;;;;;;;;;;;19.00;70.40;;;;;;4478970;32;19974;-69
2022/10/16 07:24:27;;;;;;;;;;;19.00;70.20;;;;;;4479277;32;19966;-69
2022/10/16 07:26:52;;;;;;;;;;;19.00;70.20;;;;;;4479943;32;20084;-69
2022/10/16 07:29:19;;;;;;;;;;;18.90;70.20;;;;;;4478410;32;19974;-69
2022/10/16 07:31:46;;;;;;;;;;;18.90;70.30;;;;;;4478776;32;20051;-69
2022/10/16 07:34:13;;;;;;;;;;;18.90;70.70;;;;;;4478452;32;20391;-68
2022/10/16 07:36:39;;;;;;;;;;;18.90;70.90;;;;;;4478702;32;20020;-68
2022/10/16 07:39:05;;;;;;;;;;;18.90;70.80;;;;;;4478485;32;20006;-68
2022/10/16 07:41:32;;;;;;;;;;;18.90;70.90;;;;;;4478101;32;20522;-69
2022/10/16 07:43:59;;;;;;;;;;;18.90;70.90;;;;;;4478468;32;19990;-67
2022/10/16 07:46:25;;;;;;;;;;;18.90;71.00;;;;;;4478231;32;20111;-69
2022/10/16 07:48:51;;;;;;;;;;;18.90;71.00;;;;;;4478092;32;19977;-71
2022/10/16 07:51:18;;;;;;;;;;;19.00;71.30;;;;;;4478269;32;19970;-69
2022/10/16 07:53:44;;;;;;;;;;;19.00;71.30;;;;;;4478141;32;20021;-69
2022/10/16 07:56:11;;;;;;;;;;;19.00;71.20;;;;;;4477763;32;19977;-69
2022/10/16 07:58:37;;;;;;;;;;;18.90;71.10;;;;;;4478148;32;20031;-68
2022/10/16 08:01:04;;;;;;;;;;;19.00;71.30;;;;;;4478081;32;20402;-69
2022/10/16 08:03:30;;;;;;;;;;;19.00;71.30;;;;;;4477694;32;20051;-70
2022/10/16 08:05:56;;;;;;;;;;;19.00;71.30;;;;;;4463829;32;20020;-69
2022/10/16 08:08:22;;;;;;;;;;;19.00;71.30;;;;;;4478102;32;19982;-69
2022/10/16 08:10:48;;;;;;;;;;;19.00;71.30;;;;;;4477517;32;20382;-69
2022/10/16 08:13:14;;;;;;;;;;;19.00;71.30;;;;;;4477464;32;20056;-70
2022/10/16 08:15:41;;;;;;;;;;;19.00;71.30;;;;;;4477776;32;19989;-70
2022/10/16 08:18:07;;;;;;;;;;;19.10;71.30;;;;;;4477224;32;20055;-70
2022/10/16 08:20:33;;;;;;;;;;;19.10;71.30;;;;;;4477507;32;20092;-69
2022/10/16 08:22:59;;;;;;;;;;;19.10;71.30;;;;;;4477706;32;19993;-69
2022/10/16 08:25:25;;;;;;;;;;;19.10;71.30;;;;;;4477187;32;19981;-73
2022/10/16 08:27:50;;;;;;;;;;;19.10;71.30;;;;;;4462844;32;19966;-68
2022/10/16 08:30:17;;;;;;;;;;;19.10;71.40;;;;;;4477386;32;20431;-69
2022/10/16 08:32:44;;;;;;;;;;;19.10;71.40;;;;;;4477549;32;20092;-69
2022/10/16 08:35:11;;;;;;;;;;;19.10;71.50;;;;;;4463365;32;19989;-69
2022/10/16 08:37:37;;;;;;;;;;;19.10;71.40;;;;;;4477577;32;19993;-68
2022/10/16 08:40:04;;;;;;;;;;;19.10;71.40;;;;;;4477268;32;19988;-69
2022/10/16 08:42:30;;;;;;;;;;;19.10;71.40;;;;;;4477026;32;20104;-70
2022/10/16 08:45:08;;;;;;;;;;;19.10;71.50;;;;;;4477258;32;19966;-72
2022/10/16 08:48:09;;;;;;;;;;;19.10;71.50;;;;;;4477149;32;19993;-69
2022/10/16 08:50:37;;;;;;;;;;;19.10;71.40;;;;;;4444062;32;20019;-69
2022/10/16 08:53:04;;;;;;;;;;;19.20;71.60;;;;;;4470702;32;19993;-69
2022/10/16 08:55:46;;;;;;;;;;;19.20;71.60;;;;;;4477173;32;19985;-70
2022/10/16 08:58:22;;;;;;;;;;;19.20;71.50;;;;;;4476980;32;20024;-68
2022/10/16 09:00:53;;;;;;;;;;;19.20;71.50;;;;;;4476762;32;19985;-72
2022/10/16 09:03:49;;;;;;;;;;;19.20;71.50;;;;;;4476900;32;19989;-69
2022/10/16 09:06:18;;;;;;;;;;;19.20;71.40;;;;;;4455822;32;20075;-69
2022/10/16 09:08:55;;;;;;;;;;;19.20;71.40;;;;;;4476953;32;20486;-69
2022/10/16 09:11:41;;;;;;;;;;;19.20;71.50;;;;;;4477416;32;19969;-70
2022/10/16 09:14:25;;;;;;;;;;;19.20;71.70;;;;;;4477219;32;20135;-69
2022/10/16 09:16:55;;;;;;;;;;;19.20;71.60;;;;;;4476869;32;19988;-69
2022/10/16 09:19:28;;;;;;;;;;;19.20;71.70;;;;;;4476419;32;19970;-74
2022/10/16 09:21:54;;;;;;;;;;;19.20;71.70;;;;;;4477171;32;19982;-70
2022/10/16 09:24:20;;;;;;;;;;;19.20;71.60;;;;;;4476249;32;19962;-69
2022/10/16 09:26:46;;;;;;;;;;;19.20;71.70;;;;;;4476425;32;19986;-69
2022/10/16 09:29:13;;;;;;;;;;;19.20;71.70;;;;;;4476246;32;19981;-69
2022/10/16 09:31:39;;;;;;;;;;;19.20;71.70;;;;;;4476157;32;20043;-69
2022/10/16 09:34:06;;;;;;;;;;;19.20;71.60;;;;;;4476815;32;20103;-70
2022/10/16 09:36:44;;;;;;;;;;;19.20;71.70;;;;;;4476758;32;20383;-69
2022/10/16 09:39:11;;;;;;;;;;;19.20;71.70;;;;;;4476855;32;20027;-69
2022/10/16 09:41:39;;;;;;;;;;;19.30;71.70;;;;;;4476970;32;20073;-69
2022/10/16 09:44:13;;;;;;;;;;;19.20;71.60;;;;;;4476766;32;20544;-69
2022/10/16 09:46:40;;;;;;;;;;;19.30;71.70;;;;;;4476819;32;20025;-69
2022/10/16 09:49:20;;;;;;;;;;;19.30;71.70;;;;;;4476652;32;20059;-71
2022/10/16 09:51:46;;;;;;;;;;;19.30;71.70;;;;;;4476540;32;20060;-67
2022/10/16 09:54:14;;;;;;;;;;;19.30;71.60;;;;;;4462530;32;20386;-69
2022/10/16 09:56:40;;;;;;;;;;;19.30;71.60;;;;;;4476822;32;20320;-69
2022/10/16 09:59:11;;;;;;;;;;;19.30;71.60;;;;;;4475575;32;20074;-69
2022/10/16 10:01:45;;;;;;;;;;;19.30;71.60;;;;;;4476835;32;19966;-74
2022/10/16 10:04:11;;;;;;;;;;;19.30;71.50;;;;;;4476494;32;19973;-70
2022/10/16 10:06:44;;;;;;;;;;;19.40;71.60;;;;;;4476934;32;19980;-69
2022/10/16 10:09:21;;;;;;;;;;;19.40;71.60;;;;;;4476382;32;19990;-70
2022/10/16 10:11:53;;;;;;;;;;;19.40;71.50;;;;;;4476471;32;20090;-70
2022/10/16 10:14:22;;;;;;;;;;;19.40;71.50;;;;;;4476462;32;20323;-71
2022/10/16 10:16:48;;;;;;;;;;;19.40;71.50;;;;;;4476460;32;19970;-69
2022/10/16 10:19:15;;;;;;;;;;;19.40;71.40;;;;;;4476127;32;20227;-70
2022/10/16 10:21:41;;;;;;;;;;;19.40;71.40;;;;;;4476714;32;19986;-70
2022/10/16 10:24:11;;;;;;;;;;;19.40;71.40;;;;;;4476755;32;20022;-69
2022/10/16 10:26:38;;;;;;;;;;;19.40;71.30;;;;;;4476603;32;20055;-71
2022/10/16 10:29:17;;;;;;;;;;;19.40;71.30;;;;;;4476286;32;19996;-69
2022/10/16 10:32:03;;;;;;;;;;;19.40;71.20;;;;;;4462401;32;20024;-69
2022/10/16 10:34:48;;;;;;;;;;;19.40;71.20;;;;;;4470588;32;20000;-69
2022/10/16 10:37:33;;;;;;;;;;;19.50;71.20;;;;;;4478913;32;20138;-69
2022/10/16 10:40:07;;;;;;;;;;;19.50;71.20;;;;;;4479190;32;19982;-69
2022/10/16 10:42:52;;;;;;;;;;;19.40;71.10;;;;;;4479114;32;19970;-70
2022/10/16 10:45:18;;;;;;;;;;;19.40;71.10;;;;;;4479140;32;19985;-69
2022/10/16 10:47:44;;;;;;;;;;;19.40;71.00;;;;;;4479055;32;20006;-69
2022/10/16 10:50:19;;;;;;;;;;;19.40;71.00;;;;;;4479017;32;19970;-70
2022/10/16 10:52:51;;;;;;;;;;;19.40;71.10;;;;;;4478952;32;20470;-69
2022/10/16 10:55:29;;;;;;;;;;;19.50;71.90;;;;;;4478578;32;19978;-69
2022/10/16 10:57:55;;;;;;;;;;;19.50;71.00;;;;;;4479008;32;20009;-69
2022/10/16 11:00:28;;;;;;;;;;;19.40;71.00;;;;;;4478481;32;20403;-70
2022/10/16 11:03:12;;;;;;;;;;;19.50;71.00;;;;;;4479123;32;19989;-70
2022/10/16 11:05:43;;;;;;;;;;;19.50;70.80;;;;;;4478731;32;19978;-69
2022/10/16 11:08:12;;;;;;;;;;;19.50;70.70;;;;;;4479137;32;20012;-69
2022/10/16 11:10:53;;;;;;;;;;;19.50;70.70;;;;;;4478586;32;20405;-70
2022/10/16 11:13:25;;;;;;;;;;;19.50;70.60;;;;;;4478302;32;19977;-70
2022/10/16 11:15:53;;;;;;;;;;;19.50;70.50;;;;;;4478331;32;20425;-70
2022/10/16 11:18:21;;;;;;;;;;;19.50;70.60;;;;;;4478757;32;20059;-69
2022/10/16 11:20:49;;;;;;;;;;;19.40;70.70;;;;;;4478480;32;19974;-73
2022/10/16 11:23:18;;;;;;;;;;;19.50;70.70;;;;;;4478058;32;20099;-70
2022/10/16 11:25:45;;;;;;;;;;;19.40;70.70;;;;;;4478119;32;20327;-69
2022/10/16 11:28:13;;;;;;;;;;;19.40;70.70;;;;;;4478335;32;20382;-69
2022/10/16 11:30:59;;;;;;;;;;;19.40;70.60;;;;;;4478380;32;19974;-70
2022/10/16 11:33:34;;;;;;;;;;;19.40;70.60;;;;;;4477871;32;20021;-69
2022/10/16 11:36:06;;;;;;;;;;;19.40;70.60;;;;;;4478637;32;19966;-70
2022/10/16 11:38:36;;;;;;;;;;;19.40;70.60;;;;;;4478306;32;19988;-72
2022/10/16 11:41:13;;;;;;;;;;;19.40;70.70;;;;;;4478259;32;19974;-70
2022/10/16 11:43:42;;;;;;;;;;;19.40;70.70;;;;;;4478417;32;20008;-80
2022/10/16 11:46:12;;;;;;;;;;;19.40;70.70;;;;;;4477983;32;20037;-70
2022/10/16 11:48:58;;;;;;;;;;;19.40;70.60;;;;;;4477526;32;19982;-69
2022/10/16 11:51:32;;;;;;;;;;;19.40;70.50;;;;;;4472007;32;20044;-70
2022/10/16 11:53:58;;;;;;;;;;;19.40;70.50;;;;;;4476384;32;19988;-69
2022/10/16 11:56:24;;;;;;;;;;;19.40;70.40;;;;;;4477863;32;19970;-72
2022/10/16 11:58:57;;;;;;;;;;;19.40;70.50;;;;;;4478230;32;19973;-69
2022/10/16 12:01:22;;;;;;;;;;;19.40;70.50;;;;;;4477986;32;20021;-69
2022/10/16 12:03:58;;;;;;;;;;;19.40;70.50;;;;;;4478085;32;19974;-70
2022/10/16 12:06:40;;;;;;;;;;;19.40;70.40;;;;;;4478326;32;20276;-70
2022/10/16 12:09:13;;;;;;;;;;;19.40;70.40;;;;;;4463554;32;20083;-69
2022/10/16 12:11:39;;;;;;;;;;;19.50;70.40;;;;;;4477814;32;20095;-69
2022/10/16 12:14:06;;;;;;;;;;;19.50;70.10;;;;;;4477982;32;20544;-68
2022/10/16 12:16:31;;;;;;;;;;;19.50;70.00;;;;;;4478019;32;19988;-74
2022/10/16 12:19:11;;;;;;;;;;;19.50;70.10;;;;;;4477582;32;19982;-69
2022/10/16 12:21:37;;;;;;;;;;;19.50;69.90;;;;;;4463517;32;20024;-70
2022/10/16 12:24:06;;;;;;;;;;;19.50;69.80;;;;;;4477410;32;20084;-69
2022/10/16 12:26:33;;;;;;;;;;;19.50;69.90;;;;;;4477328;32;19970;-71
2022/10/16 12:29:35;;;;;;;;;;;19.50;69.80;;;;;;4477211;32;20108;-69
2022/10/16 12:32:01;;;;;;;;;;;19.50;69.80;;;;;;4444145;32;19986;-70
2022/10/16 12:34:37;;;;;;;;;;;19.50;69.60;;;;;;4470637;32;19985;-69
2022/10/16 12:37:12;;;;;;;;;;;19.50;69.70;;;;;;4477549;32;19996;-70
2022/10/16 12:39:38;;;;;;;;;;;19.50;69.70;;;;;;4463233;32;20312;-68
2022/10/16 12:42:05;;;;;;;;;;;19.50;69.40;;;;;;4477242;32;19992;-70
2022/10/16 12:44:32;;;;;;;;;;;19.50;69.30;;;;;;4477095;32;20388;-69
2022/10/16 12:46:58;;;;;;;;;;;19.60;69.40;;;;;;4477014;32;19992;-71
2022/10/16 12:49:38;;;;;;;;;;;19.50;69.30;;;;;;4477166;32;19982;-69
2022/10/16 12:52:04;;;;;;;;;;;19.60;69.40;;;;;;4477061;32;20398;-69
2022/10/16 12:54:31;;;;;;;;;;;19.60;69.30;;;;;;4477546;32;20048;-69
2022/10/16 12:57:16;;;;;;;;;;;19.60;69.50;;;;;;4477314;32;19985;-69
2022/10/16 13:00:01;;;;;;;;;;;19.60;69.60;;;;;;4477038;32;20008;-69
2022/10/16 13:02:43;;;;;;;;;;;19.60;69.50;;;;;;4462740;32;20066;-77
2022/10/16 13:05:18;;;;;;;;;;;19.60;69.50;;;;;;4477166;32;19988;-69
2022/10/16 13:08:13;;;;;;;;;;;19.60;69.50;;;;;;4476924;32;19993;-69
2022/10/16 13:10:51;;;;;;;;;;;19.60;69.30;;;;;;4469375;32;20055;-70
2022/10/16 13:13:35;;;;;;;;;;;19.60;69.20;;;;;;4476503;32;19970;-69
2022/10/16 13:16:02;;;;;;;;;;;19.60;69.20;;;;;;4477221;32;19981;-70
2022/10/16 13:18:34;;;;;;;;;;;19.60;69.20;;;;;;4476805;32;20029;-69
2022/10/16 13:21:06;;;;;;;;;;;19.50;69.20;;;;;;4476509;32;20388;-69
2022/10/16 13:23:35;;;;;;;;;;;19.50;69.10;;;;;;4476966;32;19992;-69
2022/10/16 13:26:08;;;;;;;;;;;19.60;69.00;;;;;;4476756;32;20150;-70
2022/10/16 13:28:35;;;;;;;;;;;19.50;69.00;;;;;;4476688;32;19978;-69
2022/10/16 13:31:01;;;;;;;;;;;19.60;69.00;;;;;;4476864;32;20051;-70
2022/10/16 13:33:35;;;;;;;;;;;19.60;69.10;;;;;;4476656;32;19973;-69
2022/10/16 13:36:03;;;;;;;;;;;19.60;69.00;;;;;;4476814;32;19973;-69
2022/10/16 13:38:35;;;;;;;;;;;19.50;68.90;;;;;;4476684;32;20379;-69
2022/10/16 13:41:03;;;;;;;;;;;19.50;68.80;;;;;;4476649;32;20114;-69
2022/10/16 13:43:32;;;;;;;;;;;19.50;68.80;;;;;;4475342;32;19974;-80
2022/10/16 13:45:59;;;;;;;;;;;19.60;68.60;;;;;;4476721;32;20071;-70
2022/10/16 13:48:25;;;;;;;;;;;19.50;68.50;;;;;;4476634;32;20032;-69
2022/10/16 13:51:12;;;;;;;;;;;19.50;68.50;;;;;;4462675;32;19988;-74
2022/10/16 13:53:37;;;;;;;;;;;19.50;68.40;;;;;;4476484;32;20404;-78
2022/10/16 13:56:05;;;;;;;;;;;19.50;68.50;;;;;;4476585;32;19962;-69
2022/10/16 13:58:31;;;;;;;;;;;19.50;68.60;;;;;;4476464;32;20047;-69
2022/10/16 14:00:58;;;;;;;;;;;19.50;68.60;;;;;;4476541;32;19966;-69
2022/10/16 14:03:35;;;;;;;;;;;19.50;68.60;;;;;;4476874;32;20130;-72
2022/10/16 14:06:02;;;;;;;;;;;19.50;68.70;;;;;;4476620;32;19989;-70
2022/10/16 14:08:29;;;;;;;;;;;19.50;68.80;;;;;;4476472;32;19981;-69
2022/10/16 14:10:58;;;;;;;;;;;19.50;68.90;;;;;;4477383;32;19978;-73
2022/10/16 14:13:30;;;;;;;;;;;19.50;69.00;;;;;;4479516;32;19970;-70
2022/10/16 14:15:58;;;;;;;;;;;19.50;69.10;;;;;;4479473;32;20331;-70
2022/10/16 14:18:25;;;;;;;;;;;19.50;69.20;;;;;;4479463;32;19992;-70
2022/10/16 14:20:51;;;;;;;;;;;19.50;69.20;;;;;;4465142;32;19978;-71
2022/10/16 14:23:23;;;;;;;;;;;19.50;69.30;;;;;;4479138;32;19966;-69
2022/10/16 14:25:48;;;;;;;;;;;19.50;69.40;;;;;;4465062;32;20021;-70
2022/10/16 14:28:21;;;;;;;;;;;19.50;69.50;;;;;;4479109;32;20091;-69